createdAt,value
2017-09-20T00:00:24.994Z,100839.39
2017-09-20T00:01:31.514Z,100841.25
2017-09-20T00:02:38.703Z,100843.58
2017-09-20T00:03:44.946Z,100845.64
2017-09-20T00:04:51.263Z,100844.30
2017-09-20T00:05:57.692Z,100843.98
2017-09-20T00:07:03.800Z,100839.52
2017-09-20T00:08:10.354Z,100839.70
2017-09-20T00:09:17.343Z,100836.78
2017-09-20T00:10:23.784Z,100847.03
2017-09-20T00:11:30.196Z,100846.70
2017-09-20T00:12:36.703Z,100845.85
2017-09-20T00:13:43.855Z,100847.63
2017-09-20T00:14:50.954Z,100852.41
2017-09-20T00:15:57.669Z,100845.94
2017-09-20T00:17:03.695Z,100850.13
2017-09-20T00:18:09.842Z,100852.64
2017-09-20T00:19:16.356Z,100850.98
2017-09-20T00:20:23.050Z,100845.52
2017-09-20T00:21:29.353Z,100848.16
2017-09-20T00:22:35.976Z,100854.73
2017-09-20T00:23:42.513Z,100845.17
2017-09-20T00:24:48.707Z,100846.08
2017-09-20T00:25:55.206Z,100845.81
2017-09-20T00:27:01.616Z,100844.58
2017-09-20T00:28:08.742Z,100843.35
2017-09-20T00:29:15.766Z,100844.77
2017-09-20T00:30:22.167Z,100840.41
2017-09-20T00:31:28.615Z,100838.31
2017-09-20T00:32:35.653Z,100844.47
2017-09-20T00:33:41.886Z,100840.54
2017-09-20T00:34:48.259Z,100842.46
2017-09-20T00:35:54.703Z,100842.88
2017-09-20T00:37:02.316Z,100837.36
2017-09-20T00:38:08.538Z,100841.02
2017-09-20T00:39:14.930Z,100840.19
2017-09-20T00:40:21.223Z,100842.89
2017-09-20T00:41:27.215Z,100844.23
2017-09-20T00:42:35.087Z,100845.70
2017-09-20T00:43:41.105Z,100847.45
2017-09-20T00:44:47.595Z,100845.83
2017-09-20T00:45:53.679Z,100843.77
2017-09-20T00:47:00.134Z,100842.55
2017-09-20T00:48:06.757Z,100846.05
2017-09-20T00:49:13.271Z,100843.98
2017-09-20T00:50:19.660Z,100847.14
2017-09-20T00:51:26.625Z,100848.43
2017-09-20T00:52:33.191Z,100850.69
2017-09-20T00:53:38.926Z,100851.69
2017-09-20T00:54:45.148Z,100849.42
2017-09-20T00:55:50.510Z,100850.17
2017-09-20T00:56:56.174Z,100843.95
2017-09-20T00:58:02.235Z,100849.45
2017-09-20T00:59:08.834Z,100851.10
2017-09-20T01:00:14.138Z,100846.06
2017-09-20T01:01:19.823Z,100847.16
2017-09-20T01:02:26.153Z,100849.56
2017-09-20T01:03:32.562Z,100849.23
2017-09-20T01:04:39.442Z,100849.67
2017-09-20T01:05:45.780Z,100841.09
2017-09-20T01:06:52.726Z,100841.55
2017-09-20T01:07:59.595Z,100845.59
2017-09-20T01:09:05.143Z,100841.69
2017-09-20T01:10:11.431Z,100839.67
2017-09-20T01:11:17.615Z,100839.62
2017-09-20T01:12:24.794Z,100840.13
2017-09-20T01:13:31.620Z,100844.20
2017-09-20T01:14:37.801Z,100840.48
2017-09-20T01:15:44.136Z,100844.84
2017-09-20T01:16:49.952Z,100840.58
2017-09-20T01:17:55.921Z,100840.35
2017-09-20T01:19:02.159Z,100838.64
2017-09-20T01:20:07.935Z,100841.64
2017-09-20T01:21:25.105Z,100836.64
2017-09-20T01:22:42.488Z,100846.05
2017-09-20T01:23:48.508Z,100841.56
2017-09-20T01:24:54.182Z,100841.21
2017-09-20T01:26:00.489Z,100836.31
2017-09-20T01:27:05.970Z,100836.55
2017-09-20T01:28:11.699Z,100837.20
2017-09-20T01:29:17.588Z,100834.69
2017-09-20T01:30:23.515Z,100838.95
2017-09-20T01:31:29.779Z,100838.55
2017-09-20T01:32:36.218Z,100837.67
2017-09-20T01:33:42.533Z,100835.05
2017-09-20T01:34:48.533Z,100832.05
2017-09-20T01:35:55.061Z,100834.92
2017-09-20T01:37:01.680Z,100831.09
2017-09-20T01:38:08.001Z,100829.62
2017-09-20T01:39:14.211Z,100829.28
2017-09-20T01:40:20.491Z,100829.88
2017-09-20T01:41:26.518Z,100826.10
2017-09-20T01:42:32.820Z,100824.97
2017-09-20T01:43:39.214Z,100827.43
2017-09-20T01:44:45.444Z,100829.50
2017-09-20T01:45:52.061Z,100823.91
2017-09-20T01:46:58.484Z,100830.05
2017-09-20T01:48:05.533Z,100827.30
2017-09-20T01:49:11.918Z,100824.09
2017-09-20T01:50:18.967Z,100832.08
2017-09-20T01:51:25.838Z,100831.45
2017-09-20T01:52:32.719Z,100831.28
2017-09-20T01:53:39.108Z,100833.22
2017-09-20T01:54:45.450Z,100832.97
2017-09-20T01:55:51.750Z,100834.81
2017-09-20T01:56:57.929Z,100839.76
2017-09-20T01:58:04.104Z,100838.13
2017-09-20T01:59:10.971Z,100838.84
2017-09-20T02:00:17.205Z,100838.58
2017-09-20T02:01:23.420Z,100837.03
2017-09-20T02:02:30.431Z,100839.70
2017-09-20T02:03:37.160Z,100836.62
2017-09-20T02:04:44.607Z,100832.66
2017-09-20T02:05:51.089Z,100840.52
2017-09-20T02:06:58.133Z,100837.58
2017-09-20T02:08:04.419Z,100832.95
2017-09-20T02:09:10.899Z,100830.09
2017-09-20T02:10:17.003Z,100830.63
2017-09-20T02:11:23.067Z,100835.15
2017-09-20T02:12:29.687Z,100833.11
2017-09-20T02:13:35.783Z,100830.45
2017-09-20T02:14:42.036Z,100830.09
2017-09-20T02:15:48.408Z,100834.53
2017-09-20T02:16:55.120Z,100834.20
2017-09-20T02:18:01.657Z,100839.09
2017-09-20T02:19:08.144Z,100840.46
2017-09-20T02:20:14.664Z,100842.66
2017-09-20T02:21:21.267Z,100842.58
2017-09-20T02:22:27.647Z,100846.41
2017-09-20T02:23:34.136Z,100840.03
2017-09-20T02:24:40.364Z,100839.73
2017-09-20T02:25:46.988Z,100843.77
2017-09-20T02:26:53.599Z,100842.72
2017-09-20T02:28:00.511Z,100842.03
2017-09-20T02:29:07.133Z,100841.40
2017-09-20T02:30:13.646Z,100848.58
2017-09-20T02:31:19.969Z,100848.98
2017-09-20T02:32:26.366Z,100846.58
2017-09-20T02:33:32.793Z,100846.30
2017-09-20T02:34:39.665Z,100850.76
2017-09-20T02:35:45.741Z,100847.52
2017-09-20T02:36:52.028Z,100843.77
2017-09-20T02:37:57.932Z,100845.67
2017-09-20T02:39:04.019Z,100847.01
2017-09-20T02:40:10.058Z,100844.36
2017-09-20T02:41:17.078Z,100849.59
2017-09-20T02:42:23.480Z,100842.64
2017-09-20T02:43:29.756Z,100850.93
2017-09-20T02:44:35.936Z,100849.25
2017-09-20T02:45:42.399Z,100846.55
2017-09-20T02:46:48.707Z,100852.28
2017-09-20T02:47:54.927Z,100847.48
2017-09-20T02:49:01.522Z,100848.53
2017-09-20T02:50:07.338Z,100844.14
2017-09-20T02:51:13.571Z,100855.79
2017-09-20T02:52:20.394Z,100852.89
2017-09-20T02:53:26.561Z,100849.26
2017-09-20T02:54:33.451Z,100847.71
2017-09-20T02:55:39.769Z,100850.13
2017-09-20T02:56:45.844Z,100848.58
2017-09-20T02:57:52.350Z,100858.72
2017-09-20T02:58:58.481Z,100851.78
2017-09-20T03:00:04.451Z,100849.63
2017-09-20T03:01:09.787Z,100852.30
2017-09-20T03:02:16.484Z,100854.09
2017-09-20T03:03:22.985Z,100851.00
2017-09-20T03:04:29.700Z,100859.42
2017-09-20T03:05:36.530Z,100855.56
2017-09-20T03:06:43.470Z,100854.98
2017-09-20T03:07:50.020Z,100861.08
2017-09-20T03:08:56.238Z,100857.60
2017-09-20T03:10:02.577Z,100854.75
2017-09-20T03:11:08.927Z,100861.19
2017-09-20T03:12:15.236Z,100853.60
2017-09-20T03:13:21.666Z,100857.44
2017-09-20T03:14:28.268Z,100857.97
2017-09-20T03:15:34.509Z,100858.87
2017-09-20T03:16:40.844Z,100862.31
2017-09-20T03:17:47.313Z,100859.45
2017-09-20T03:18:53.721Z,100856.47
2017-09-20T03:20:01.204Z,100862.78
2017-09-20T03:21:07.953Z,100861.39
2017-09-20T03:22:14.520Z,100866.23
2017-09-20T03:23:20.968Z,100865.98
2017-09-20T03:24:27.456Z,100866.88
2017-09-20T03:25:33.958Z,100859.64
2017-09-20T03:26:40.247Z,100857.46
2017-09-20T03:27:46.468Z,100859.72
2017-09-20T03:28:53.264Z,100863.25
2017-09-20T03:29:59.527Z,100867.30
2017-09-20T03:31:05.916Z,100857.52
2017-09-20T03:32:12.188Z,100853.60
2017-09-20T03:33:19.255Z,100858.44
2017-09-20T03:34:25.673Z,100858.57
2017-09-20T03:35:32.487Z,100856.32
2017-09-20T03:36:38.644Z,100855.35
2017-09-20T03:37:44.912Z,100858.33
2017-09-20T03:38:51.228Z,100866.23
2017-09-20T03:39:57.749Z,100866.22
2017-09-20T03:41:04.405Z,100867.04
2017-09-20T03:42:10.691Z,100870.45
2017-09-20T03:43:17.289Z,100864.31
2017-09-20T03:44:23.655Z,100868.52
2017-09-20T03:45:29.742Z,100868.34
2017-09-20T03:46:36.386Z,100866.09
2017-09-20T03:47:42.900Z,100874.30
2017-09-20T03:48:49.508Z,100872.11
2017-09-20T03:49:55.878Z,100869.05
2017-09-20T03:51:02.287Z,100869.91
2017-09-20T03:52:09.583Z,100869.12
2017-09-20T03:53:16.143Z,100872.48
2017-09-20T03:54:22.598Z,100872.77
2017-09-20T03:55:29.380Z,100877.09
2017-09-20T03:56:36.204Z,100876.83
2017-09-20T03:57:42.671Z,100872.55
2017-09-20T03:58:48.878Z,100875.84
2017-09-20T03:59:55.842Z,100878.88
2017-09-20T04:01:02.152Z,100874.94
2017-09-20T04:02:09.528Z,100874.69
2017-09-20T04:03:25.772Z,100873.67
2017-09-20T04:04:35.101Z,100873.20
2017-09-20T04:05:42.476Z,100880.02
2017-09-20T04:06:48.764Z,100880.69
2017-09-20T04:07:55.423Z,100878.73
2017-09-20T04:09:01.685Z,100879.23
2017-09-20T04:10:08.359Z,100885.93
2017-09-20T04:11:14.738Z,100880.38
2017-09-20T04:12:21.411Z,100882.88
2017-09-20T04:13:28.075Z,100890.70
2017-09-20T04:14:34.411Z,100886.06
2017-09-20T04:15:41.417Z,100892.16
2017-09-20T04:16:51.100Z,100888.11
2017-09-20T04:17:57.737Z,100888.16
2017-09-20T04:19:04.550Z,100889.25
2017-09-20T04:20:11.179Z,100885.97
2017-09-20T04:21:17.683Z,100888.09
2017-09-20T04:22:25.244Z,100881.63
2017-09-20T04:23:32.747Z,100891.86
2017-09-20T04:24:40.074Z,100893.24
2017-09-20T04:25:46.805Z,100891.47
2017-09-20T04:26:54.406Z,100890.45
2017-09-20T04:28:01.334Z,100892.95
2017-09-20T04:29:13.102Z,100892.91
2017-09-20T04:30:20.836Z,100893.73
2017-09-20T04:31:28.838Z,100895.29
2017-09-20T04:32:37.294Z,100895.45
2017-09-20T04:33:45.080Z,100894.28
2017-09-20T04:34:52.412Z,100903.69
2017-09-20T04:36:00.742Z,100903.24
2017-09-20T04:37:09.311Z,100907.42
2017-09-20T04:38:18.475Z,100904.39
2017-09-20T04:39:26.763Z,100905.01
2017-09-20T04:40:34.430Z,100907.54
2017-09-20T04:41:43.450Z,100905.66
2017-09-20T04:42:51.303Z,100906.02
2017-09-20T04:43:59.181Z,100907.95
2017-09-20T04:45:07.391Z,100909.37
2017-09-20T04:46:21.416Z,100907.41
2017-09-20T04:47:30.135Z,100908.93
2017-09-20T04:49:22.468Z,100910.36
2017-09-20T04:50:32.995Z,100907.56
2017-09-20T04:51:42.691Z,100910.94
2017-09-20T04:52:56.302Z,100904.34
2017-09-20T04:54:04.506Z,100903.16
2017-09-20T04:55:13.483Z,100905.80
2017-09-20T04:56:23.417Z,100899.65
2017-09-20T04:57:32.603Z,100901.32
2017-09-20T04:58:42.430Z,100903.02
2017-09-20T04:59:51.003Z,100901.73
2017-09-20T05:00:59.799Z,100905.34
2017-09-20T05:02:10.405Z,100897.58
2017-09-20T05:03:20.568Z,100907.29
2017-09-20T05:04:30.488Z,100908.00
2017-09-20T05:05:40.333Z,100909.05
2017-09-20T05:06:51.452Z,100914.44
2017-09-20T05:08:04.560Z,100913.88
2017-09-20T05:09:15.352Z,100916.50
2017-09-20T05:10:27.474Z,100915.02
2017-09-20T05:11:37.642Z,100913.95
2017-09-20T05:12:47.417Z,100918.54
2017-09-20T05:13:57.472Z,100916.80
2017-09-20T05:15:07.663Z,100919.48
2017-09-20T05:16:17.609Z,100919.01
2017-09-20T05:17:27.390Z,100919.75
2017-09-20T05:18:37.498Z,100920.78
2017-09-20T05:19:47.648Z,100924.36
2017-09-20T05:20:57.384Z,100924.63
2017-09-20T05:22:06.683Z,100924.29
2017-09-20T05:23:17.457Z,100925.27
2017-09-20T05:24:27.389Z,100923.46
2017-09-20T05:25:38.314Z,100926.66
2017-09-20T05:26:47.332Z,100929.91
2017-09-20T05:27:57.495Z,100928.58
2017-09-20T05:29:09.372Z,100924.30
2017-09-20T05:30:19.420Z,100926.97
2017-09-20T05:31:29.733Z,100933.94
2017-09-20T05:32:39.603Z,100927.36
2017-09-20T05:33:49.586Z,100927.65
2017-09-20T05:35:00.311Z,100928.19
2017-09-20T05:36:10.386Z,100926.43
2017-09-20T05:37:19.387Z,100926.84
2017-09-20T05:38:29.473Z,100930.55
2017-09-20T05:39:39.515Z,100927.03
2017-09-20T05:40:49.510Z,100929.70
2017-09-20T05:42:02.427Z,100928.63
2017-09-20T05:43:12.409Z,100924.23
2017-09-20T05:44:21.306Z,100925.53
2017-09-20T05:45:31.400Z,100932.36
2017-09-20T05:46:41.344Z,100929.55
2017-09-20T05:47:51.327Z,100928.63
2017-09-20T05:49:00.337Z,100928.27
2017-09-20T05:50:12.501Z,100929.80
2017-09-20T05:51:22.330Z,100935.14
2017-09-20T05:52:32.002Z,100936.13
2017-09-20T05:53:41.182Z,100934.64
2017-09-20T05:54:50.212Z,100931.53
2017-09-20T05:55:59.206Z,100932.22
2017-09-20T05:57:07.205Z,100933.23
2017-09-20T05:58:15.182Z,100934.05
2017-09-20T05:59:23.485Z,100938.71
2017-09-20T06:00:34.450Z,100936.98
2017-09-20T06:01:44.386Z,100939.44
2017-09-20T06:02:55.396Z,100938.15
2017-09-20T06:04:07.271Z,100935.03
2017-09-20T06:05:17.321Z,100931.17
2017-09-20T06:06:27.322Z,100928.80
2017-09-20T06:07:37.316Z,100932.58
2017-09-20T06:08:48.336Z,100928.38
2017-09-20T06:09:58.385Z,100932.58
2017-09-20T06:11:08.354Z,100931.62
2017-09-20T06:12:18.455Z,100935.19
2017-09-20T06:13:28.331Z,100940.62
2017-09-20T06:14:38.271Z,100938.98
2017-09-20T06:15:48.222Z,100936.70
2017-09-20T06:16:57.350Z,100940.76
2017-09-20T06:18:07.272Z,100937.40
2017-09-20T06:19:17.224Z,100945.46
2017-09-20T06:20:27.340Z,100943.17
2017-09-20T06:21:37.289Z,100935.78
2017-09-20T06:22:47.298Z,100943.84
2017-09-20T06:23:57.263Z,100948.03
2017-09-20T06:25:08.359Z,100945.27
2017-09-20T06:26:19.343Z,100946.31
2017-09-20T06:27:29.333Z,100945.95
2017-09-20T06:28:39.340Z,100945.81
2017-09-20T06:29:49.318Z,100950.30
2017-09-20T06:31:00.272Z,100948.78
2017-09-20T06:32:10.288Z,100948.16
2017-09-20T06:33:21.356Z,100954.92
2017-09-20T06:34:31.266Z,100947.59
2017-09-20T06:35:41.302Z,100949.79
2017-09-20T06:36:52.279Z,100952.13
2017-09-20T06:38:02.269Z,100950.84
2017-09-20T06:39:12.175Z,100950.50
2017-09-20T06:40:23.269Z,100948.47
2017-09-20T06:41:33.285Z,100941.34
2017-09-20T06:42:44.324Z,100943.64
2017-09-20T06:43:54.261Z,100949.42
2017-09-20T06:45:04.229Z,100951.55
2017-09-20T06:46:14.264Z,100950.16
2017-09-20T06:47:23.221Z,100948.95
2017-09-20T06:48:33.266Z,100949.66
2017-09-20T06:49:43.242Z,100951.76
2017-09-20T06:50:53.190Z,100954.33
2017-09-20T06:52:03.303Z,100956.33
2017-09-20T06:53:15.248Z,100955.37
2017-09-20T06:54:24.298Z,100950.98
2017-09-20T06:55:36.275Z,100956.38
2017-09-20T06:56:46.323Z,100958.41
2017-09-20T06:57:56.272Z,100953.42
2017-09-20T06:59:06.315Z,100960.26
2017-09-20T07:00:16.471Z,100962.37
2017-09-20T07:01:26.150Z,100960.92
2017-09-20T07:02:37.280Z,100959.33
2017-09-20T07:03:47.120Z,100959.28
2017-09-20T07:04:57.244Z,100967.85
2017-09-20T07:06:07.104Z,100963.99
2017-09-20T07:07:18.232Z,100966.41
2017-09-20T07:08:28.239Z,100965.53
2017-09-20T07:09:38.203Z,100967.06
2017-09-20T07:10:50.224Z,100967.32
2017-09-20T07:12:01.093Z,100969.39
2017-09-20T07:13:11.135Z,100972.58
2017-09-20T07:14:21.098Z,100968.89
2017-09-20T07:15:32.216Z,100973.19
2017-09-20T07:16:42.121Z,100971.58
2017-09-20T07:17:52.165Z,100971.64
2017-09-20T07:19:03.258Z,100975.36
2017-09-20T07:20:13.303Z,100976.05
2017-09-20T07:21:24.187Z,100973.09
2017-09-20T07:22:34.190Z,100973.86
2017-09-20T07:23:45.180Z,100975.18
2017-09-20T07:24:56.202Z,100969.19
2017-09-20T07:26:06.131Z,100971.51
2017-09-20T07:27:18.176Z,100975.27
2017-09-20T07:28:27.080Z,100974.41
2017-09-20T07:29:37.126Z,100977.59
2017-09-20T07:30:48.059Z,100980.97
2017-09-20T07:31:58.247Z,100977.03
2017-09-20T07:33:08.172Z,100976.59
2017-09-20T07:34:18.146Z,100977.28
2017-09-20T07:35:27.288Z,100977.45
2017-09-20T07:36:36.989Z,100976.05
2017-09-20T07:37:47.078Z,100978.78
2017-09-20T07:38:57.141Z,100982.79
2017-09-20T07:40:06.067Z,100987.50
2017-09-20T07:41:16.141Z,100980.91
2017-09-20T07:42:26.060Z,100981.08
2017-09-20T07:44:51.065Z,100982.17
2017-09-20T07:46:02.150Z,100979.73
2017-09-20T07:47:12.162Z,100979.23
2017-09-20T07:48:22.260Z,100987.92
2017-09-20T07:49:32.082Z,100984.94
2017-09-20T07:50:42.358Z,100987.10
2017-09-20T07:51:52.112Z,100981.95
2017-09-20T07:53:01.938Z,100984.86
2017-09-20T07:54:12.198Z,100986.33
2017-09-20T07:55:22.000Z,100987.18
2017-09-20T07:56:31.090Z,100986.75
2017-09-20T07:57:41.034Z,100992.34
2017-09-20T07:58:51.040Z,100987.67
2017-09-20T08:00:04.088Z,100986.27
2017-09-20T08:01:13.118Z,100988.16
2017-09-20T08:02:22.870Z,100988.27
2017-09-20T08:03:32.179Z,100984.69
2017-09-20T08:04:42.130Z,100991.72
2017-09-20T08:05:52.081Z,100989.64
2017-09-20T08:07:00.980Z,100978.89
2017-09-20T08:08:10.046Z,100978.08
2017-09-20T08:09:19.014Z,100980.56
2017-09-20T08:10:27.231Z,100983.61
2017-09-20T08:11:36.997Z,100986.67
2017-09-20T08:12:46.334Z,100988.25
2017-09-20T08:13:56.008Z,100984.78
2017-09-20T08:15:06.035Z,100989.99
2017-09-20T08:16:16.022Z,100984.91
2017-09-20T08:17:24.949Z,100981.36
2017-09-20T08:18:34.004Z,100990.80
2017-09-20T08:19:43.952Z,100986.41
2017-09-20T08:20:54.000Z,100987.27
2017-09-20T08:22:03.988Z,100986.75
2017-09-20T08:23:15.072Z,100983.46
2017-09-20T08:24:25.022Z,100988.64
2017-09-20T08:25:35.048Z,100985.23
2017-09-20T08:26:45.033Z,100991.56
2017-09-20T08:27:54.954Z,100986.70
2017-09-20T08:29:05.161Z,100985.52
2017-09-20T08:30:15.038Z,100983.48
2017-09-20T08:31:24.940Z,100982.91
2017-09-20T08:32:34.070Z,100981.20
2017-09-20T08:33:43.962Z,100980.59
2017-09-20T08:34:54.039Z,100986.55
2017-09-20T08:36:01.936Z,100985.63
2017-09-20T08:37:10.996Z,100983.72
2017-09-20T08:38:22.006Z,100989.53
2017-09-20T08:39:30.971Z,100985.63
2017-09-20T08:40:39.915Z,100988.69
2017-09-20T08:41:48.916Z,100992.13
2017-09-20T08:42:57.903Z,100987.98
2017-09-20T08:44:07.252Z,100989.36
2017-09-20T08:45:16.835Z,100991.39
2017-09-20T08:46:25.808Z,100996.58
2017-09-20T08:47:34.707Z,100981.89
2017-09-20T08:48:44.947Z,100974.28
2017-09-20T08:49:54.869Z,100984.07
2017-09-20T08:51:04.918Z,100978.64
2017-09-20T08:52:16.033Z,100977.60
2017-09-20T08:53:25.955Z,100978.06
2017-09-20T08:54:35.935Z,100977.37
2017-09-20T08:55:44.934Z,100985.72
2017-09-20T08:56:53.862Z,100985.49
2017-09-20T08:58:03.899Z,100985.28
2017-09-20T08:59:13.830Z,100982.22
2017-09-20T09:00:24.012Z,100988.66
2017-09-20T09:01:32.883Z,100985.89
2017-09-20T09:02:41.947Z,100984.14
2017-09-20T09:03:52.910Z,100983.16
2017-09-20T09:05:02.918Z,100981.30
2017-09-20T09:06:11.847Z,100987.38
2017-09-20T09:07:20.849Z,100983.06
2017-09-20T09:08:29.924Z,100986.98
2017-09-20T09:09:39.899Z,100993.45
2017-09-20T09:10:49.031Z,100993.01
2017-09-20T09:11:58.909Z,100983.50
2017-09-20T09:13:11.007Z,100987.67
2017-09-20T09:14:20.987Z,100982.37
2017-09-20T09:15:30.788Z,100990.59
2017-09-20T09:16:39.845Z,100985.12
2017-09-20T09:17:51.882Z,100986.61
2017-09-20T09:19:01.988Z,100985.52
2017-09-20T09:20:11.790Z,100989.02
2017-09-20T09:21:21.895Z,100984.06
2017-09-20T09:22:32.996Z,100983.64
2017-09-20T09:23:42.858Z,100978.98
2017-09-20T09:24:52.932Z,100979.70
2017-09-20T09:26:02.712Z,100984.47
2017-09-20T09:27:11.184Z,100982.48
2017-09-20T09:28:19.855Z,100985.89
2017-09-20T09:29:30.006Z,100974.09
2017-09-20T09:30:39.904Z,100982.98
2017-09-20T09:31:50.165Z,100980.04
2017-09-20T09:33:00.974Z,100978.54
2017-09-20T09:34:10.856Z,100975.87
2017-09-20T09:35:20.963Z,100972.64
2017-09-20T09:36:29.932Z,100974.73
2017-09-20T09:37:40.913Z,100969.42
2017-09-20T09:38:50.885Z,100974.22
2017-09-20T09:40:00.794Z,100973.22
2017-09-20T09:41:11.849Z,100970.94
2017-09-20T09:42:22.861Z,100971.78
2017-09-20T09:43:32.686Z,100971.14
2017-09-20T09:44:41.839Z,100957.61
2017-09-20T09:45:51.833Z,100970.91
2017-09-20T09:47:00.929Z,100961.75
2017-09-20T09:48:11.773Z,100961.47
2017-09-20T09:49:22.907Z,100961.97
2017-09-20T09:50:32.850Z,100968.03
2017-09-20T09:51:42.815Z,100963.55
2017-09-20T09:52:52.776Z,100968.07
2017-09-20T09:54:03.794Z,100960.38
2017-09-20T09:55:13.866Z,100961.20
2017-09-20T09:56:23.748Z,100963.03
2017-09-20T09:57:34.852Z,100960.62
2017-09-20T09:58:44.875Z,100961.66
2017-09-20T09:59:54.949Z,100961.52
2017-09-20T10:01:04.784Z,100959.59
2017-09-20T10:02:14.780Z,100957.33
2017-09-20T10:03:24.799Z,100956.82
2017-09-20T10:04:33.675Z,100959.02
2017-09-20T10:05:42.704Z,100958.64
2017-09-20T10:06:52.827Z,100956.83
2017-09-20T10:08:01.774Z,100948.76
2017-09-20T10:09:10.824Z,100947.92
2017-09-20T10:10:20.768Z,100953.30
2017-09-20T10:11:28.817Z,100946.88
2017-09-20T10:12:38.594Z,100947.47
2017-09-20T10:13:47.711Z,100942.44
2017-09-20T10:14:56.518Z,100943.62
2017-09-20T10:16:06.663Z,100950.81
2017-09-20T10:17:15.773Z,100946.06
2017-09-20T10:18:25.945Z,100945.66
2017-09-20T10:19:34.731Z,100936.62
2017-09-20T10:20:44.732Z,100937.83
2017-09-20T10:21:54.909Z,100945.58
2017-09-20T10:23:03.723Z,100943.69
2017-09-20T10:24:12.771Z,100942.71
2017-09-20T10:25:23.205Z,100941.77
2017-09-20T10:26:35.648Z,100941.73
2017-09-20T10:27:45.845Z,100943.52
2017-09-20T10:28:56.060Z,100941.22
2017-09-20T10:30:05.779Z,100938.42
2017-09-20T10:31:16.813Z,100934.31
2017-09-20T10:32:26.724Z,100936.42
2017-09-20T10:33:38.737Z,100935.57
2017-09-20T10:34:49.763Z,100933.78
2017-09-20T10:36:00.200Z,100932.06
2017-09-20T10:37:10.901Z,100935.66
2017-09-20T10:38:20.884Z,100937.20
2017-09-20T10:39:30.720Z,100930.56
2017-09-20T10:40:39.655Z,100931.39
2017-09-20T10:41:50.759Z,100926.28
2017-09-20T10:43:00.583Z,100935.30
2017-09-20T10:44:12.814Z,100928.98
2017-09-20T10:45:22.692Z,100934.73
2017-09-20T10:46:32.686Z,100927.45
2017-09-20T10:47:43.743Z,100929.41
2017-09-20T10:48:54.831Z,100934.79
2017-09-20T10:50:04.770Z,100937.36
2017-09-20T10:51:15.692Z,100930.53
2017-09-20T10:52:26.786Z,100936.39
2017-09-20T10:53:36.768Z,100942.16
2017-09-20T10:54:46.674Z,100944.14
2017-09-20T10:55:56.669Z,100948.00
2017-09-20T10:57:05.720Z,100951.19
2017-09-20T10:58:15.733Z,100951.65
2017-09-20T10:59:25.715Z,100946.00
2017-09-20T11:00:35.885Z,100947.44
2017-09-20T11:01:46.765Z,100942.45
2017-09-20T11:02:57.630Z,100943.81
2017-09-20T11:04:07.779Z,100943.98
2017-09-20T11:05:17.654Z,100950.19
2017-09-20T11:06:33.994Z,100950.19
2017-09-20T11:07:47.775Z,100945.98
2017-09-20T11:08:57.693Z,100946.67
2017-09-20T11:10:46.970Z,100947.12
2017-09-20T11:11:58.930Z,100947.90
2017-09-20T11:13:14.963Z,100954.56
2017-09-20T11:14:25.894Z,100954.72
2017-09-20T11:15:38.826Z,100955.81
2017-09-20T11:16:51.566Z,100956.40
2017-09-20T11:18:01.730Z,100958.98
2017-09-20T11:19:12.817Z,100953.04
2017-09-20T11:20:23.789Z,100958.06
2017-09-20T11:21:34.602Z,100961.59
2017-09-20T11:22:45.563Z,100954.73
2017-09-20T11:23:56.690Z,100963.77
2017-09-20T11:25:07.681Z,100963.06
2017-09-20T11:26:18.601Z,100963.53
2017-09-20T11:27:36.652Z,100964.29
2017-09-20T11:28:46.823Z,100962.70
2017-09-20T11:30:12.769Z,100957.59
2017-09-20T11:31:25.544Z,100968.23
2017-09-20T11:32:34.683Z,100961.58
2017-09-20T11:33:44.856Z,100960.45
2017-09-20T11:34:57.818Z,100958.80
2017-09-20T11:36:08.464Z,100955.44
2017-09-20T11:37:23.062Z,100951.20
2017-09-20T11:38:44.721Z,100947.02
2017-09-20T11:40:30.930Z,100950.11
2017-09-20T11:41:48.971Z,100942.70
2017-09-20T11:43:07.653Z,100952.75
2017-09-20T11:44:22.779Z,100952.09
2017-09-20T11:45:34.856Z,100951.77
2017-09-20T11:46:45.582Z,100950.62
2017-09-20T11:47:58.524Z,100953.57
2017-09-20T11:49:08.541Z,100955.77
2017-09-20T11:50:17.460Z,100948.84
2017-09-20T11:51:26.698Z,100948.37
2017-09-20T11:52:37.645Z,100939.75
2017-09-20T11:53:47.644Z,100938.47
2017-09-20T11:54:59.503Z,100936.12
2017-09-20T11:56:11.744Z,100940.06
2017-09-20T11:57:22.634Z,100935.86
2017-09-20T11:58:44.699Z,100932.18
2017-09-20T11:59:56.677Z,100931.45
2017-09-20T12:01:10.666Z,100929.58
2017-09-20T12:02:23.848Z,100921.78
2017-09-20T12:03:37.853Z,100920.61
2017-09-20T12:04:52.811Z,100920.34
2017-09-20T12:06:35.739Z,100924.87
2017-09-20T12:07:48.511Z,100916.53
2017-09-20T12:08:59.903Z,100922.95
2017-09-20T12:10:12.740Z,100923.81
2017-09-20T12:11:24.569Z,100925.11
2017-09-20T12:12:39.767Z,100926.09
2017-09-20T12:13:53.595Z,100928.64
2017-09-20T12:15:07.711Z,100920.39
2017-09-20T12:16:21.652Z,100923.69
2017-09-20T12:17:33.640Z,100923.39
2017-09-20T12:18:43.604Z,100917.45
2017-09-20T12:19:56.783Z,100916.20
2017-09-20T12:21:08.741Z,100914.48
2017-09-20T12:22:19.634Z,100915.96
2017-09-20T12:23:29.848Z,100916.53
2017-09-20T12:24:39.568Z,100913.59
2017-09-20T12:25:52.544Z,100915.86
2017-09-20T12:27:03.551Z,100919.55
2017-09-20T12:28:13.520Z,100912.35
2017-09-20T12:29:23.570Z,100922.60
2017-09-20T12:30:33.446Z,100919.99
2017-09-20T12:31:43.496Z,100913.66
2017-09-20T12:32:53.461Z,100928.08
2017-09-20T12:34:02.500Z,100915.48
2017-09-20T12:35:11.584Z,100912.19
2017-09-20T12:36:21.432Z,100917.02
2017-09-20T12:37:33.422Z,100913.94
2017-09-20T12:38:44.479Z,100914.38
2017-09-20T12:39:54.458Z,100916.16
2017-09-20T12:41:04.671Z,100907.03
2017-09-20T12:42:13.387Z,100911.07
2017-09-20T12:43:22.411Z,100910.97
2017-09-20T12:44:32.396Z,100912.20
2017-09-20T12:45:43.386Z,100909.83
2017-09-20T12:46:53.435Z,100909.19
2017-09-20T12:48:03.410Z,100906.02
2017-09-20T12:49:14.369Z,100910.12
2017-09-20T12:50:24.911Z,100914.44
2017-09-20T12:51:35.168Z,100913.67
2017-09-20T12:52:45.490Z,100911.83
2017-09-20T12:53:55.564Z,100913.66
2017-09-20T12:55:06.881Z,100915.20
2017-09-20T12:56:16.451Z,100914.16
2017-09-20T12:57:26.428Z,100909.05
2017-09-20T12:58:37.405Z,100909.02
2017-09-20T12:59:48.381Z,100908.12
2017-09-20T13:00:58.395Z,100913.16
2017-09-20T13:02:09.422Z,100913.02
2017-09-20T13:03:22.407Z,100905.26
2017-09-20T13:04:32.405Z,100908.66
2017-09-20T13:05:47.408Z,100908.52
2017-09-20T13:06:57.354Z,100912.45
2017-09-20T13:08:06.464Z,100912.16
2017-09-20T13:09:16.380Z,100913.55
2017-09-20T13:10:27.469Z,100911.94
2017-09-20T13:11:37.627Z,100913.58